Main page
METAR-TAF:

METAR-TAF

Airports :

La Tontouta International Airport

Nouméa / La Tontouta, New Caledonia

latitude: 22-01S, longitude: 166-13E, elevation: 16 m

Current weather observation

The report was made 24 minutes ago, at 15:30 UTC
Wind 3 kt from the Southeast
Temperature 19°C
Humidity 88%
Pressure 1016 hPa
Visibility 10 km or more
no clouds below 1500 m and no cumulonimbus

METAR: NWWW 281530Z AUTO 14003KT CAVOK 19/17 Q1016 NOSIG

Time: 02:54 (15:54 UTC)

Forecast

The report was made 4 hours and 54 minutes ago, at 11:00 UTC
Forecast valid from 28 at 12 UTC to 29 at 12 UTC
Wind 8 kt from the South/Southeast
Visibility 10 km or more
Few clouds at a height of 4000 ft

TAF: NWWW 281100Z 2812/2912 16008KT 9999 FEW040

Weather observations and forecasts of more than 4000 airports (METAR and TAF reports).

The available stations are represented by yellow and red dots on the map.

Hover mouse over dot to see the name of the station.

Then click to see weather observations and forecasts.

To change the map : click on the green buttons with a black cross to zoom in, on the green button with a dash to zoom out, or on the green arrows for adjacent maps.


METAR-TAF: